Time;durP1;ratioP1;P1;durP2;ratioP2;P2;SDS_P1;SDS_P2;PMS_P1;PMS_P2;Temp;Humidity;BMP_temperature;BMP_pressure;BME280_temperature;BME280_humidity;BME280_pressure;Samples;Min_cycle;Max_cycle;Signal;HPM_P1;HPM_P2
2023/08/23 00:00:07;;;;;;;10.82;9.50;;;;;;;24.48;51.15;95264.59;4979062;28;20045;-92
2023/08/23 00:02:33;;;;;;;10.85;9.75;;;;;;;24.39;51.41;95245.28;4994380;28;20112;-91
2023/08/23 00:04:58;;;;;;;10.70;9.10;;;;;;;24.42;51.09;95255.47;4995335;28;20029;-92
2023/08/23 00:07:24;;;;;;;16.13;10.05;;;;;;;24.34;51.69;95254.47;4978532;28;20041;-91
2023/08/23 00:09:50;;;;;;;11.07;9.27;;;;;;;24.39;51.66;95256.50;4994738;28;20049;-91
2023/08/23 00:12:15;;;;;;;12.07;9.68;;;;;;;24.33;51.67;95245.28;4979949;28;20428;-92
2023/08/23 00:14:42;;;;;;;10.68;9.55;;;;;;;24.32;51.81;95251.44;4995718;28;20030;-89
2023/08/23 00:17:07;;;;;;;10.88;9.80;;;;;;;24.27;51.95;95250.19;4979497;28;20117;-91
2023/08/23 00:19:32;;;;;;;10.18;9.15;;;;;;;24.23;52.02;95246.13;4983240;28;20041;-91
2023/08/23 00:21:58;;;;;;;12.38;9.57;;;;;;;24.21;52.08;95252.25;4983925;28;20037;-91
2023/08/23 00:24:23;;;;;;;10.45;9.32;;;;;;;24.11;52.28;95242.59;5012364;28;20053;-91
2023/08/23 00:26:48;;;;;;;12.07;10.38;;;;;;;24.16;52.08;95253.06;4979586;28;20029;-90
2023/08/23 00:29:14;;;;;;;12.85;9.57;;;;;;;24.09;52.43;95250.81;4978438;28;20444;-90
2023/08/23 00:31:39;;;;;;;10.75;9.48;;;;;;;24.06;52.39;95251.81;4979514;28;20120;-92
2023/08/23 00:34:05;;;;;;;11.05;9.38;;;;;;;24.07;52.69;95244.91;4983634;28;20014;-90
2023/08/23 00:36:30;;;;;;;11.48;9.60;;;;;;;24.01;52.57;95249.81;4996132;28;20416;-91
2023/08/23 00:38:55;;;;;;;11.13;9.55;;;;;;;23.95;52.74;95249.84;4980646;28;20034;-92
2023/08/23 00:41:22;;;;;;;11.27;10.07;;;;;;;23.91;52.90;95245.75;4993897;28;20026;-91
2023/08/23 00:43:48;;;;;;;11.52;10.27;;;;;;;23.89;52.87;95246.28;4995453;28;20033;-91
2023/08/23 00:46:14;;;;;;;11.00;9.90;;;;;;;23.85;52.87;95246.56;4977536;28;20022;-91
2023/08/23 00:48:39;;;;;;;11.73;10.50;;;;;;;23.79;52.98;95228.22;4977637;28;20108;-92
2023/08/23 00:51:05;;;;;;;11.15;10.05;;;;;;;23.78;52.78;95226.69;4978349;28;20034;-92
2023/08/23 00:53:30;;;;;;;10.70;9.60;;;;;;;23.77;52.99;95242.78;4994622;28;20099;-91
2023/08/23 00:55:56;;;;;;;11.43;9.48;;;;;;;23.75;53.18;95244.59;5012823;28;20030;-92
2023/08/23 00:58:22;;;;;;;12.73;10.15;;;;;;;23.72;53.28;95231.56;4977855;28;20049;-90
2023/08/23 01:00:48;;;;;;;12.88;9.70;;;;;;;23.72;53.23;95240.75;4978964;28;20057;-90
2023/08/23 01:03:13;;;;;;;11.65;9.50;;;;;;;23.70;53.67;95236.94;4976853;28;20068;-91
2023/08/23 01:06:14;;;;;;;12.50;9.45;;;;;;;23.67;53.71;95240.78;5012243;28;20106;-91
2023/08/23 01:08:57;;;;;;;9.77;8.85;;;;;;;23.65;53.38;95235.69;4931913;29;20059;-91
2023/08/23 01:11:41;;;;;;;10.70;9.43;;;;;;;23.62;53.45;95241.53;4932003;29;20040;-90
2023/08/23 01:14:14;;;;;;;11.15;9.63;;;;;;;23.61;53.42;95246.38;4917614;29;20066;-90
2023/08/23 01:16:41;;;;;;;11.60;10.07;;;;;;;23.52;53.66;95247.44;4930910;29;20339;-92
2023/08/23 01:19:23;;;;;;;10.85;9.75;;;;;;;23.53;53.64;95254.56;4916349;29;20518;-91
2023/08/23 01:21:51;;;;;;;11.02;9.25;;;;;;;23.54;53.88;95249.72;4916889;29;20529;-91
2023/08/23 01:24:16;;;;;;;14.70;10.35;;;;;;;23.48;53.75;95246.94;4931782;29;20228;-91
2023/08/23 01:26:43;;;;;;;12.90;10.30;;;;;;;23.45;53.95;95244.38;4933137;29;20029;-91
2023/08/23 01:29:08;;;;;;;11.60;10.43;;;;;;;23.48;54.01;95246.19;4930918;29;20063;-91
2023/08/23 01:31:38;;;;;;;15.40;10.30;;;;;;;23.49;53.89;95248.47;4917059;29;20498;-90
2023/08/23 01:34:27;;;;;;;11.25;10.00;;;;;;;23.46;53.85;95246.69;4931325;29;20127;-90
2023/08/23 01:36:54;;;;;;;18.92;10.25;;;;;;;23.41;54.17;95246.72;4915618;29;20537;-91
2023/08/23 01:39:22;;;;;;;10.93;9.57;;;;;;;23.44;54.16;95245.66;4932297;29;20094;-90
2023/08/23 01:41:49;;;;;;;12.02;9.98;;;;;;;23.40;54.51;95253.56;4914499;29;20039;-90
2023/08/23 01:44:15;;;;;;;12.40;10.52;;;;;;;23.35;54.70;95246.72;4955791;28;20137;-90
2023/08/23 01:46:40;;;;;;;11.55;10.25;;;;;;;23.28;54.72;95245.22;4991649;28;20094;-90
2023/08/23 01:49:05;;;;;;;11.57;10.27;;;;;;;23.26;54.77;95244.19;4994492;28;20114;-90
2023/08/23 01:51:31;;;;;;;10.93;9.82;;;;;;;23.24;54.83;95238.34;4976278;28;20026;-90
2023/08/23 01:53:56;;;;;;;12.05;10.52;;;;;;;23.22;54.58;95240.88;5011177;28;20416;-91
2023/08/23 01:56:22;;;;;;;11.60;10.32;;;;;;;23.22;54.17;95244.44;4992833;28;20079;-90
2023/08/23 01:58:47;;;;;;;14.00;10.50;;;;;;;23.16;54.28;95240.88;4976068;28;20022;-90
2023/08/23 02:01:12;;;;;;;13.57;10.13;;;;;;;23.13;53.87;95253.16;4993676;28;20479;-90
2023/08/23 02:03:38;;;;;;;14.48;9.50;;;;;;;23.11;53.38;95249.31;4991639;28;20034;-90
2023/08/23 02:06:03;;;;;;;14.43;9.65;;;;;;;23.12;53.51;95248.81;5011147;28;20533;-90
2023/08/23 02:08:29;;;;;;;12.07;8.90;;;;;;;23.10;52.94;95253.41;4991878;28;20030;-90
2023/08/23 02:10:54;;;;;;;10.68;8.93;;;;;;;23.10;52.96;95247.78;4993790;28;20033;-89
2023/08/23 02:13:19;;;;;;;11.73;9.35;;;;;;;23.00;52.98;95242.47;4984387;28;20336;-91
2023/08/23 02:15:45;;;;;;;9.65;8.75;;;;;;;23.01;53.11;95255.19;4978066;28;20025;-91
2023/08/23 02:18:10;;;;;;;11.45;9.15;;;;;;;23.02;53.08;95250.34;4977105;28;20125;-90
2023/08/23 02:20:35;;;;;;;11.90;9.75;;;;;;;22.98;53.33;95238.63;4991715;28;20029;-90
2023/08/23 02:23:01;;;;;;;11.40;9.32;;;;;;;22.98;53.29;95244.25;4993141;28;20061;-90
2023/08/23 02:25:26;;;;;;;10.60;9.07;;;;;;;22.96;53.15;95238.38;4977127;28;20535;-91
2023/08/23 02:27:52;;;;;;;12.30;9.52;;;;;;;22.96;53.43;95241.94;5002267;28;20022;-90
2023/08/23 02:30:17;;;;;;;10.75;8.73;;;;;;;22.94;53.55;95243.72;4977369;28;20117;-90
2023/08/23 02:32:43;;;;;;;10.23;9.23;;;;;;;22.92;53.40;95238.63;5011310;28;20080;-91
2023/08/23 02:35:08;;;;;;;12.98;10.60;;;;;;;22.92;53.66;95249.84;5010322;28;20025;-90
2023/08/23 02:37:33;;;;;;;10.88;9.68;;;;;;;22.89;53.72;95236.88;4992896;28;20026;-90
2023/08/23 02:39:59;;;;;;;12.82;9.77;;;;;;;22.90;53.65;95244.00;4993432;28;20512;-91
2023/08/23 02:42:24;;;;;;;11.68;9.40;;;;;;;22.86;53.47;95234.28;4992670;28;20064;-90
2023/08/23 02:44:49;;;;;;;13.55;9.45;;;;;;;22.79;53.85;95229.97;4977000;28;20060;-90
2023/08/23 02:47:15;;;;;;;12.18;10.13;;;;;;;22.82;54.03;95239.38;4975595;28;20022;-90
2023/08/23 02:49:40;;;;;;;10.57;9.45;;;;;;;22.81;54.02;95244.22;4992965;28;20026;-90
2023/08/23 02:52:06;;;;;;;10.80;9.65;;;;;;;22.80;53.99;95245.50;4991891;28;20379;-90
2023/08/23 02:54:31;;;;;;;12.73;10.27;;;;;;;22.76;54.10;95242.19;4976628;28;20128;-90
2023/08/23 02:56:56;;;;;;;12.07;10.20;;;;;;;22.73;54.33;95240.41;5009578;28;20022;-91
2023/08/23 02:59:22;;;;;;;11.43;10.23;;;;;;;22.74;53.99;95245.50;4992729;28;20484;-89
2023/08/23 03:01:47;;;;;;;11.45;9.77;;;;;;;22.74;54.51;95237.09;4992709;28;20042;-90
2023/08/23 03:04:13;;;;;;;11.30;9.70;;;;;;;22.70;54.49;95244.22;5009497;28;20405;-89
2023/08/23 03:06:39;;;;;;;14.05;10.75;;;;;;;22.65;54.69;95236.56;4992499;28;20026;-90
2023/08/23 03:09:04;;;;;;;13.60;10.30;;;;;;;22.64;54.73;95238.63;4991076;28;20033;-92
2023/08/23 03:11:30;;;;;;;12.95;10.13;;;;;;;22.60;54.72;95240.94;4976631;28;20022;-91
2023/08/23 03:13:56;;;;;;;14.55;10.90;;;;;;;22.66;54.62;95246.53;4992619;28;20034;-91
2023/08/23 03:16:22;;;;;;;11.70;10.18;;;;;;;22.64;55.02;95235.81;4979343;28;20120;-90
2023/08/23 03:18:47;;;;;;;11.63;9.90;;;;;;;22.63;55.10;95245.50;4978779;28;20026;-90
2023/08/23 03:21:12;;;;;;;11.20;9.93;;;;;;;22.59;55.05;95244.97;4995816;28;20037;-90
2023/08/23 03:23:39;;;;;;;11.63;10.30;;;;;;;22.57;55.06;95241.16;4996407;28;20031;-90
2023/08/23 03:26:05;;;;;;;11.35;10.02;;;;;;;22.51;54.97;95241.16;4979256;28;20036;-90
2023/08/23 03:28:30;;;;;;;11.25;10.07;;;;;;;22.51;54.80;95236.34;4996389;28;20113;-90
2023/08/23 03:31:03;;;;;;;11.35;9.60;;;;;;;22.48;54.95;95237.38;4995480;28;20082;-91
2023/08/23 03:33:29;;;;;;;14.85;9.95;;;;;;;22.50;54.87;95231.25;4995961;28;20033;-90
2023/08/23 03:35:55;;;;;;;15.05;10.38;;;;;;;22.48;55.05;95240.16;4994705;28;20032;-90
2023/08/23 03:38:20;;;;;;;14.05;10.52;;;;;;;22.48;54.95;95242.97;4979172;28;20030;-89
2023/08/23 03:40:46;;;;;;;12.48;10.38;;;;;;;22.42;54.95;95235.81;4995529;28;20029;-89
2023/08/23 03:43:11;;;;;;;12.68;10.52;;;;;;;22.39;55.19;95240.41;4994112;28;20038;-90
2023/08/23 03:45:36;;;;;;;15.07;11.38;;;;;;;22.35;54.89;95239.88;4995584;28;20171;-92
2023/08/23 03:48:02;;;;;;;13.95;10.82;;;;;;;22.33;55.26;95236.06;4994002;28;20030;-90
2023/08/23 03:50:28;;;;;;;16.17;10.57;;;;;;;22.32;55.50;95243.72;4995715;28;20072;-91
2023/08/23 03:52:53;;;;;;;12.35;11.05;;;;;;;22.33;55.44;95244.47;4979654;28;20049;-90
2023/08/23 03:55:19;;;;;;;13.77;11.73;;;;;;;22.29;55.17;95239.09;5012871;28;20037;-91
2023/08/23 03:57:44;;;;;;;13.93;11.27;;;;;;;22.26;55.58;95243.69;4978488;28;20088;-90
2023/08/23 04:00:10;;;;;;;18.83;12.07;;;;;;;22.30;55.48;95249.03;4978338;28;20022;-89
2023/08/23 04:02:36;;;;;;;12.13;10.85;;;;;;;22.27;55.44;95252.88;5011279;28;20038;-88
2023/08/23 04:05:05;;;;;;;13.68;10.43;;;;;;;22.25;55.37;95239.38;5009422;28;20036;-88
2023/08/23 04:07:30;;;;;;;12.82;10.88;;;;;;;22.27;55.40;95250.06;4994193;28;20022;-87
2023/08/23 04:09:56;;;;;;;12.25;10.95;;;;;;;22.24;55.64;95242.66;4975284;28;20508;-85
2023/08/23 04:12:21;;;;;;;13.13;10.55;;;;;;;22.26;55.56;95248.53;4978180;28;20109;-86
2023/08/23 04:14:47;;;;;;;12.15;10.95;;;;;;;22.26;55.72;95242.94;5010424;28;20500;-89
2023/08/23 04:17:12;;;;;;;14.70;10.88;;;;;;;22.29;55.47;95249.53;4977094;28;20089;-87
2023/08/23 04:19:37;;;;;;;18.35;11.30;;;;;;;22.26;55.65;95248.53;4994656;28;20053;-85
2023/08/23 04:22:03;;;;;;;18.38;11.77;;;;;;;22.25;55.59;95244.97;4993226;28;20408;-87
2023/08/23 04:24:28;;;;;;;15.30;11.15;;;;;;;22.23;55.27;95246.75;4992882;28;20030;-87
2023/08/23 04:26:53;;;;;;;17.70;12.18;;;;;;;22.22;55.54;95245.22;4990644;28;20025;-87
2023/08/23 04:29:19;;;;;;;14.27;10.63;;;;;;;22.24;55.59;95248.25;4976574;28;20506;-87
2023/08/23 04:31:44;;;;;;;18.92;11.60;;;;;;;22.19;55.69;95235.81;4974795;28;20127;-85
2023/08/23 04:34:10;;;;;;;18.30;12.40;;;;;;;22.25;55.40;95246.97;4992707;28;20488;-86
2023/08/23 04:36:36;;;;;;;18.35;12.32;;;;;;;22.28;55.40;95243.19;4991784;28;20514;-85
2023/08/23 04:39:01;;;;;;;13.48;12.05;;;;;;;22.27;55.40;95241.66;4975624;28;20484;-87
2023/08/23 04:41:27;;;;;;;13.07;11.68;;;;;;;22.31;55.55;95253.38;5010149;28;20057;-87
2023/08/23 04:43:52;;;;;;;15.13;12.55;;;;;;;22.30;55.47;95251.84;4990889;28;20022;-87
2023/08/23 04:46:17;;;;;;;13.23;11.65;;;;;;;22.35;55.30;95256.69;4992835;28;20116;-87
2023/08/23 04:48:43;;;;;;;13.13;11.43;;;;;;;22.37;55.29;95253.41;4990913;28;20034;-86
2023/08/23 04:51:09;;;;;;;16.38;11.40;;;;;;;22.38;54.74;95252.88;4976313;28;20026;-87
2023/08/23 04:53:35;;;;;;;15.10;11.27;;;;;;;22.38;55.04;95261.28;4974851;28;20125;-87
2023/08/23 04:56:00;;;;;;;13.70;11.18;;;;;;;22.37;54.84;95253.41;4975655;28;20022;-86
2023/08/23 04:58:32;;;;;;;14.10;11.35;;;;;;;22.45;54.50;95252.38;5009757;28;20044;-87
2023/08/23 05:01:05;;;;;;;11.35;10.30;;;;;;;22.51;54.74;95255.94;4976322;28;20029;-86
2023/08/23 05:03:34;;;;;;;14.35;11.02;;;;;;;22.64;54.52;95255.44;4976581;28;20040;-85
2023/08/23 05:06:00;;;;;;;12.23;10.65;;;;;;;22.65;54.54;95254.19;4990322;28;20037;-86
2023/08/23 05:08:26;;;;;;;17.27;12.10;;;;;;;22.65;54.63;95256.97;4975911;28;20030;-85
2023/08/23 05:10:52;;;;;;;13.32;11.20;;;;;;;22.64;54.80;95254.66;4990627;28;20052;-88
2023/08/23 05:13:18;;;;;;;13.82;11.00;;;;;;;22.70;54.72;95261.03;4992343;28;20026;-86
2023/08/23 05:15:44;;;;;;;13.77;11.82;;;;;;;22.68;54.82;95252.38;4991265;28;20100;-86
2023/08/23 05:18:09;;;;;;;15.27;11.70;;;;;;;22.71;54.34;95254.94;4974637;28;20052;-85
2023/08/23 05:20:36;;;;;;;13.93;11.70;;;;;;;22.76;54.06;95254.16;4991853;28;20554;-86
2023/08/23 05:23:01;;;;;;;12.85;10.52;;;;;;;22.79;53.59;95253.16;4973942;28;20025;-87
2023/08/23 05:25:27;;;;;;;13.65;11.23;;;;;;;22.85;53.54;95255.19;4975458;28;20491;-86
2023/08/23 05:27:53;;;;;;;12.48;11.02;;;;;;;22.83;53.46;95257.75;4974055;28;20022;-87
2023/08/23 05:30:18;;;;;;;15.63;10.85;;;;;;;22.88;53.36;95260.56;4991645;28;20029;-87
2023/08/23 05:32:44;;;;;;;17.20;11.57;;;;;;;22.90;53.13;95251.66;4974172;28;20124;-87
2023/08/23 05:35:10;;;;;;;15.20;10.68;;;;;;;23.02;52.70;95253.91;5008973;28;20407;-87
2023/08/23 05:37:35;;;;;;;12.13;10.32;;;;;;;23.02;52.63;95258.78;4991030;28;20032;-86
2023/08/23 05:40:01;;;;;;;13.10;10.27;;;;;;;23.01;52.78;95258.00;4974199;28;20374;-86
2023/08/23 05:42:27;;;;;;;10.70;9.65;;;;;;;23.03;52.78;95254.69;5008796;28;20022;-86
2023/08/23 05:44:52;;;;;;;12.18;10.52;;;;;;;23.10;52.91;95259.00;4973795;28;20029;-84
2023/08/23 05:47:17;;;;;;;12.52;10.93;;;;;;;23.12;52.55;95254.44;4991228;28;20496;-87
2023/08/23 05:49:43;;;;;;;12.70;10.68;;;;;;;23.21;52.26;95256.19;4989980;28;20026;-87
2023/08/23 05:52:08;;;;;;;15.27;11.40;;;;;;;23.25;52.33;95251.09;5008414;28;20026;-87
2023/08/23 05:54:33;;;;;;;15.38;11.45;;;;;;;23.27;52.48;95256.94;4990165;28;20026;-88
2023/08/23 05:56:59;;;;;;;12.27;10.98;;;;;;;23.23;52.13;95236.81;5007632;28;20065;-85
2023/08/23 05:59:26;;;;;;;16.48;10.77;;;;;;;23.37;52.24;95244.16;4991997;28;20034;-87
2023/08/23 06:01:51;;;;;;;15.55;12.35;;;;;;;23.40;52.24;95254.38;4990019;28;20041;-87
2023/08/23 06:04:17;;;;;;;16.50;10.85;;;;;;;23.40;51.93;95259.19;4974962;28;20064;-86
2023/08/23 06:06:42;;;;;;;15.27;11.25;;;;;;;23.45;51.85;95255.59;5007235;28;20113;-87
2023/08/23 06:09:08;;;;;;;15.52;11.27;;;;;;;23.50;52.26;95254.84;4976407;28;20026;-87
2023/08/23 06:11:33;;;;;;;13.13;11.77;;;;;;;23.57;52.08;95263.50;4974006;28;20112;-88
2023/08/23 06:13:58;;;;;;;14.95;11.05;;;;;;;23.70;51.71;95259.41;4994031;28;20029;-87
2023/08/23 06:16:24;;;;;;;18.40;12.13;;;;;;;23.73;51.52;95258.34;4991064;28;20057;-87
2023/08/23 06:18:49;;;;;;;13.57;11.30;;;;;;;23.74;51.59;95245.84;4974427;28;20084;-86
2023/08/23 06:21:15;;;;;;;14.48;11.27;;;;;;;23.76;51.68;95246.09;4975533;28;20089;-87
2023/08/23 06:23:43;;;;;;;14.18;11.35;;;;;;;23.90;51.55;95247.06;5007628;28;20417;-87
2023/08/23 06:26:09;;;;;;;15.65;10.98;;;;;;;23.90;51.46;95244.25;4975112;28;20026;-87
2023/08/23 06:28:35;;;;;;;16.40;11.55;;;;;;;23.94;51.08;95245.50;4989529;28;20022;-89
2023/08/23 06:31:00;;;;;;;13.70;11.88;;;;;;;24.01;51.12;95250.56;4990887;28;20463;-86
2023/08/23 06:33:25;;;;;;;16.38;12.18;;;;;;;24.05;51.06;95244.69;4973561;28;20535;-87
2023/08/23 06:35:51;;;;;;;15.07;11.55;;;;;;;24.08;51.15;95247.19;4974419;28;20030;-87
2023/08/23 06:38:16;;;;;;;15.45;11.93;;;;;;;24.19;51.11;95248.44;4975006;28;20053;-86
2023/08/23 06:40:42;;;;;;;13.40;11.98;;;;;;;24.28;50.89;95250.94;4989713;28;20128;-88
2023/08/23 06:43:10;;;;;;;13.10;11.10;;;;;;;24.38;50.70;95243.75;4991010;28;20034;-86
2023/08/23 06:45:35;;;;;;;14.65;13.02;;;;;;;24.53;50.16;95255.38;5006688;28;20132;-85
2023/08/23 06:48:01;;;;;;;12.32;11.10;;;;;;;24.56;50.34;95245.91;4991026;28;20354;-87
2023/08/23 06:50:26;;;;;;;17.52;11.55;;;;;;;24.63;49.86;95248.16;4976446;28;20018;-88
2023/08/23 06:52:51;;;;;;;13.50;11.52;;;;;;;24.74;49.74;95247.31;4978707;28;20041;-88
2023/08/23 06:55:19;;;;;;;14.48;11.90;;;;;;;24.82;49.59;95250.31;4977995;28;20026;-88
2023/08/23 06:57:45;;;;;;;12.35;10.95;;;;;;;24.92;49.37;95253.56;4994358;28;20029;-88
2023/08/23 07:00:12;;;;;;;13.73;11.85;;;;;;;24.99;49.23;95250.94;4978535;28;20048;-88
2023/08/23 07:02:37;;;;;;;18.25;12.15;;;;;;;25.13;48.59;95249.81;4992847;28;20033;-89
2023/08/23 07:05:03;;;;;;;15.55;12.10;;;;;;;25.21;48.59;95247.16;4995080;28;20526;-88
2023/08/23 07:07:28;;;;;;;23.33;13.02;;;;;;;25.27;48.12;95238.69;4993043;28;20125;-87
2023/08/23 07:09:53;;;;;;;14.55;12.93;;;;;;;25.40;48.00;95255.66;4994926;28;20515;-88
2023/08/23 07:12:19;;;;;;;16.05;11.38;;;;;;;25.51;48.06;95257.59;4993351;28;20022;-88
2023/08/23 07:14:46;;;;;;;14.10;12.02;;;;;;;25.64;47.08;95244.41;5011811;28;20606;-87
2023/08/23 07:17:12;;;;;;;15.05;11.75;;;;;;;25.73;47.11;95259.41;5012216;28;20033;-88
2023/08/23 07:19:37;;;;;;;14.70;11.52;;;;;;;25.78;47.01;95255.78;4993367;28;20037;-87
2023/08/23 07:22:03;;;;;;;16.02;11.63;;;;;;;25.90;46.94;95254.38;4994835;28;20033;-89
2023/08/23 07:24:29;;;;;;;17.05;12.27;;;;;;;25.99;46.59;95254.00;4992971;28;20030;-87
2023/08/23 07:26:55;;;;;;;15.15;11.93;;;;;;;26.05;46.33;95246.25;5012132;28;20030;-87
2023/08/23 07:29:20;;;;;;;13.20;11.20;;;;;;;26.13;46.29;95246.38;4976586;28;20058;-86
2023/08/23 07:31:46;;;;;;;13.18;11.88;;;;;;;26.22;46.00;95243.19;4977724;28;20133;-88
2023/08/23 07:34:12;;;;;;;11.98;10.75;;;;;;;26.32;45.67;95243.56;4993356;28;20032;-89
2023/08/23 07:36:37;;;;;;;14.45;11.20;;;;;;;26.40;45.60;95236.03;5011221;28;20033;-88
2023/08/23 07:39:03;;;;;;;13.68;11.77;;;;;;;26.58;45.00;95234.50;4978226;28;20025;-90
2023/08/23 07:41:29;;;;;;;13.38;11.40;;;;;;;26.71;45.01;95229.66;5010322;28;20026;-89
2023/08/23 07:43:54;;;;;;;14.43;11.52;;;;;;;26.82;45.12;95231.53;4994060;28;20033;-89
2023/08/23 07:46:20;;;;;;;12.63;10.77;;;;;;;26.94;44.50;95237.75;5010259;28;20032;-88
2023/08/23 07:48:45;;;;;;;14.60;11.18;;;;;;;27.05;44.36;95234.72;5011639;28;20125;-89
2023/08/23 07:51:11;;;;;;;13.10;11.73;;;;;;;27.17;44.10;95233.25;4978141;28;20029;-90
2023/08/23 07:53:36;;;;;;;13.57;10.35;;;;;;;27.34;43.26;95227.31;4996711;28;20033;-89
2023/08/23 07:56:02;;;;;;;15.60;11.45;;;;;;;27.37;43.46;95229.06;4977924;28;20088;-89
2023/08/23 07:58:28;;;;;;;12.40;10.80;;;;;;;27.49;43.55;95223.97;4993753;28;20022;-89
2023/08/23 08:00:53;;;;;;;13.93;12.07;;;;;;;27.61;43.42;95219.63;4977244;28;20033;-90
2023/08/23 08:03:19;;;;;;;20.95;12.20;;;;;;;27.70;43.26;95229.72;5010595;28;20034;-89
2023/08/23 08:05:44;;;;;;;14.82;11.27;;;;;;;27.95;41.96;95233.09;4997453;28;20030;-87
2023/08/23 08:08:09;;;;;;;14.63;11.82;;;;;;;28.05;41.90;95223.63;5011993;28;20033;-89
2023/08/23 08:10:35;;;;;;;14.45;11.88;;;;;;;28.14;41.59;95225.22;4994655;28;20033;-90
2023/08/23 08:13:01;;;;;;;17.40;11.57;;;;;;;28.25;41.69;95227.03;4993198;28;20324;-89
2023/08/23 08:15:26;;;;;;;15.75;11.77;;;;;;;28.37;41.10;95221.91;4993926;28;20034;-89
2023/08/23 08:17:52;;;;;;;14.05;10.43;;;;;;;28.48;41.13;95216.00;4977210;28;20045;-89
2023/08/23 08:20:19;;;;;;;16.83;11.00;;;;;;;28.64;40.54;95212.03;4992742;28;20029;-89
2023/08/23 08:22:45;;;;;;;16.38;11.20;;;;;;;28.80;40.40;95210.88;4993871;28;20112;-88
2023/08/23 08:25:11;;;;;;;14.00;10.82;;;;;;;28.90;39.86;95210.34;4991551;28;20415;-85
2023/08/23 08:27:36;;;;;;;14.15;10.60;;;;;;;29.01;39.64;95207.28;4992723;28;20025;-85
2023/08/23 08:30:02;;;;;;;16.17;10.02;;;;;;;29.19;39.25;95205.53;5010576;28;20113;-89
2023/08/23 08:32:28;;;;;;;15.00;10.23;;;;;;;29.32;38.96;95208.28;4992601;28;20092;-87
2023/08/23 08:34:55;;;;;;;16.13;10.55;;;;;;;29.45;39.00;95211.00;4975736;28;20025;-88
2023/08/23 08:37:21;;;;;;;15.30;9.95;;;;;;;29.60;38.46;95213.97;4992767;28;20084;-87
2023/08/23 08:39:47;;;;;;;14.43;10.30;;;;;;;29.73;38.35;95210.25;4978182;28;20042;-87
2023/08/23 08:42:12;;;;;;;11.68;9.82;;;;;;;29.94;37.50;95209.44;4975617;28;20038;-85
2023/08/23 08:44:38;;;;;;;13.20;10.20;;;;;;;30.10;37.14;95206.06;4995648;28;20030;-87
2023/08/23 08:47:04;;;;;;;14.00;9.30;;;;;;;30.31;37.06;95203.16;4992430;28;20033;-88
2023/08/23 08:49:29;;;;;;;13.10;9.77;;;;;;;30.51;36.79;95209.25;4993276;28;20066;-87
2023/08/23 08:51:58;;;;;;;12.35;9.27;;;;;;;30.68;36.29;95200.94;4990983;28;20503;-87
2023/08/23 08:54:24;;;;;;;11.07;8.52;;;;;;;30.85;35.63;95203.28;4976150;28;20041;-87
2023/08/23 08:56:50;;;;;;;13.80;8.90;;;;;;;31.09;34.91;95208.41;4975479;28;20041;-87
2023/08/23 08:59:16;;;;;;;15.13;9.48;;;;;;;31.27;34.70;95191.59;4977457;28;20029;-86
2023/08/23 09:01:42;;;;;;;9.93;8.93;;;;;;;31.53;34.11;95198.91;4977078;28;20085;-89
2023/08/23 09:04:08;;;;;;;12.57;9.13;;;;;;;31.73;33.99;95195.84;4991117;28;20466;-88
2023/08/23 09:06:34;;;;;;;10.13;8.48;;;;;;;31.97;32.99;95191.63;5010281;28;20033;-89
2023/08/23 09:09:00;;;;;;;7.72;7.00;;;;;;;32.16;31.56;95190.41;4991271;28;20034;-89
2023/08/23 09:11:26;;;;;;;9.10;7.53;;;;;;;32.40;32.00;95186.13;4992983;28;20377;-89
2023/08/23 09:13:52;;;;;;;10.95;8.65;;;;;;;32.59;31.78;95179.97;5009063;28;20472;-90
2023/08/23 09:16:17;;;;;;;9.80;7.57;;;;;;;32.84;30.30;95169.34;4976356;28;20018;-90
2023/08/23 09:18:44;;;;;;;8.30;7.40;;;;;;;33.09;29.72;95171.44;4992655;28;20055;-89
2023/08/23 09:21:12;;;;;;;8.48;7.40;;;;;;;33.25;28.66;95169.97;4974875;28;20037;-88
2023/08/23 09:23:38;;;;;;;9.00;6.95;;;;;;;33.44;27.96;95161.66;5010585;28;20026;-89
2023/08/23 09:26:05;;;;;;;9.77;7.00;;;;;;;33.63;27.21;95163.94;4991117;28;20041;-89
2023/08/23 09:28:31;;;;;;;7.00;6.32;;;;;;;33.79;27.19;95156.72;4993295;28;20484;-88
2023/08/23 09:30:57;;;;;;;7.38;6.60;;;;;;;33.98;27.38;95161.84;4991939;28;20400;-90
2023/08/23 09:33:25;;;;;;;12.30;7.03;;;;;;;34.21;27.12;95152.25;4992868;28;20101;-88
2023/08/23 09:35:51;;;;;;;8.50;6.15;;;;;;;34.48;25.31;95158.00;4992736;28;20026;-88
2023/08/23 09:38:20;;;;;;;7.10;5.95;;;;;;;34.55;25.28;95152.16;4991007;28;20566;-89
2023/08/23 09:40:47;;;;;;;7.78;6.18;;;;;;;34.56;25.33;95155.78;4992817;28;20032;-88
2023/08/23 09:43:14;;;;;;;8.20;5.97;;;;;;;34.74;25.98;95139.31;4991520;28;20403;-89
2023/08/23 09:45:40;;;;;;;8.55;6.13;;;;;;;34.90;25.73;95143.44;4980153;28;20029;-88
2023/08/23 09:48:06;;;;;;;6.95;6.18;;;;;;;35.12;25.30;95130.91;4992454;28;20108;-88
2023/08/23 09:50:32;;;;;;;7.85;6.03;;;;;;;35.34;24.48;95136.84;4993189;28;20026;-89
2023/08/23 09:53:04;;;;;;;5.90;5.35;;;;;;;35.54;24.51;95129.81;4992363;28;20022;-90
2023/08/23 09:55:30;;;;;;;6.28;5.57;;;;;;;35.62;24.22;95118.25;4992625;28;20085;-91
2023/08/23 09:57:56;;;;;;;6.40;5.80;;;;;;;35.88;23.42;95117.31;4977901;28;20484;-89
2023/08/23 10:00:22;;;;;;;5.70;5.20;;;;;;;36.06;24.13;95123.63;4995741;28;20057;-90
2023/08/23 10:02:48;;;;;;;9.73;6.18;;;;;;;36.22;24.25;95124.06;4977017;28;20548;-89
2023/08/23 10:05:13;;;;;;;7.00;5.90;;;;;;;36.46;22.64;95119.34;4990944;28;20026;-90
2023/08/23 10:07:42;;;;;;;10.43;5.57;;;;;;;36.62;22.13;95129.09;4976757;28;20082;-91
2023/08/23 10:10:09;;;;;;;7.03;5.45;;;;;;;36.75;21.93;95121.38;4976050;28;20022;-89
2023/08/23 10:12:46;;;;;;;7.15;5.47;;;;;;;36.82;22.18;95118.34;4991940;28;20084;-88
2023/08/23 10:15:14;;;;;;;6.40;5.78;;;;;;;37.04;22.09;95116.28;4992108;28;20022;-89
2023/08/23 10:17:41;;;;;;;7.60;5.20;;;;;;;37.19;21.61;95115.88;4991306;28;20036;-90
2023/08/23 10:20:10;;;;;;;6.05;5.30;;;;;;;37.35;21.40;95115.53;4976465;28;20095;-89
2023/08/23 10:22:37;;;;;;;6.85;5.40;;;;;;;37.52;21.41;95117.38;4990919;28;20065;-90
2023/08/23 10:25:14;;;;;;;5.22;4.72;;;;;;;37.60;20.10;95118.66;4975279;28;20064;-89
2023/08/23 10:27:39;;;;;;;4.53;4.13;;;;;;;37.77;18.53;95102.53;4991715;28;20057;-91
2023/08/23 10:30:08;;;;;;;8.02;4.32;;;;;;;37.84;18.88;95108.06;4991166;28;20026;-91
2023/08/23 10:32:36;;;;;;;6.75;4.88;;;;;;;38.03;19.19;95101.41;5009182;28;20076;-90
2023/08/23 10:35:01;;;;;;;5.10;4.70;;;;;;;38.12;18.81;95097.69;4990819;28;20026;-91
2023/08/23 10:37:27;;;;;;;5.55;4.53;;;;;;;38.04;17.82;95102.91;4991751;28;20216;-88
2023/08/23 10:39:53;;;;;;;6.32;4.25;;;;;;;38.09;18.63;95106.81;4990221;28;20124;-89
2023/08/23 10:42:21;;;;;;;7.10;4.47;;;;;;;38.23;18.97;95096.22;4991340;28;20416;-89
2023/08/23 10:44:53;;;;;;;6.80;5.13;;;;;;;38.39;19.18;95102.28;4990676;28;20089;-89
2023/08/23 10:47:19;;;;;;;5.65;4.75;;;;;;;38.57;18.55;95099.81;4991103;28;20508;-89
2023/08/23 10:49:45;;;;;;;4.93;4.43;;;;;;;38.72;17.13;95105.84;4991908;28;20032;-89
2023/08/23 10:52:11;;;;;;;5.72;4.95;;;;;;;38.86;17.25;95094.47;4990323;28;20018;-89
2023/08/23 10:54:36;;;;;;;5.60;4.30;;;;;;;39.02;16.82;95097.59;4991786;28;20527;-90
2023/08/23 10:57:02;;;;;;;4.70;4.30;;;;;;;39.09;17.14;95095.84;4974326;28;20075;-89
2023/08/23 10:59:28;;;;;;;4.97;4.47;;;;;;;39.10;17.34;95085.84;4992190;28;20073;-89
2023/08/23 11:01:53;;;;;;;7.00;6.05;;;;;;;39.06;17.30;95094.97;4973993;28;20554;-89
2023/08/23 11:04:19;;;;;;;5.22;4.40;;;;;;;39.42;18.29;95092.81;4992033;28;20026;-89
2023/08/23 11:06:46;;;;;;;7.07;4.28;;;;;;;39.71;16.66;95083.75;5008918;28;20076;-90
2023/08/23 11:09:11;;;;;;;4.30;3.38;;;;;;;39.59;15.21;95077.25;4991025;28;20163;-90
2023/08/23 11:11:36;;;;;;;5.07;4.03;;;;;;;39.77;17.64;95066.84;4991604;28;20109;-90
2023/08/23 11:14:03;;;;;;;7.15;5.03;;;;;;;40.12;18.86;95063.81;4990074;28;20026;-89
2023/08/23 11:16:28;;;;;;;7.38;5.70;;;;;;;40.64;18.72;95073.13;4991383;28;20022;-89